Language: 


Des rapports , des résumés tant et plus, au choix de chacun....


Données Historiques de Météogheer
Journalier Rapport pour Janvier 6, 2018 Unitée:  Les deux    Impériale   Métrique
Suivant Jour »
Journalier Hebdomadaire Mensuel Annuel Sur mesure
  Max: Min: Moyenne:
Température: 45.1 °F /  7.3 °C 37.9 °F /  3.3 °C 42.1 °F /  5.6 °C
Point de rosée: 44.6 °F /  7.0 °C 37.4 °F /  3.0 °C 42.1 °F /  5.6 °C
Humidité: 98% 93% 97%
Vent: 17mph /  27.4km/h - 3.8mph /  6.1km/h
Rafales: 17.2mph /  27.7km/h - -
Vent- - ENE
Pression: 30 in /  1016.1 hPa 29.5 in /  999.9 hPa -
Pluie: 0.01 in /  0.3 mm    
Historical Graphs
 
 
Données tabulaires pour Janvier 6, 2018
Heure Température Point de rosée Pression Vent Vent Rafales Humidité Pluie Taux (Horaire) Conditions
00:03 42.3 °F /  5.7 °C 41 °F /  5.0 °C 29.6in /  1000.9hPa South 2.5mph /  4.0km/h 5.8mph /  9.3km/h 95% 0in /  0.0mm
00:08 42.1 °F /  5.6 °C 41 °F /  5.0 °C 29.6in /  1000.9hPa SSW 2.5mph /  4.0km/h 5.6mph /  9.0km/h 95% 0in /  0.0mm
00:09 42.1 °F /  5.6 °C 41 °F /  5.0 °C 29.6in /  1000.9hPa Calm   4.9mph /  7.9km/h 95% 0in /  0.0mm
00:14 41.9 °F /  5.5 °C 41 °F /  5.0 °C 29.6in /  1000.9hPa Calm   5.6mph /  9.0km/h 95% 0in /  0.0mm
00:17 41.7 °F /  5.4 °C 41 °F /  5.0 °C 29.6in /  1000.9hPa Calm   5.6mph /  9.0km/h 95% 0in /  0.0mm
00:22 41.5 °F /  5.3 °C 41 °F /  5.0 °C 29.6in /  1000.9hPa South 5.8mph /  9.3km/h 5.8mph /  9.3km/h 95% 0in /  0.0mm
00:28 41.4 °F /  5.2 °C 41 °F /  5.0 °C 29.6in /  1000.9hPa Calm   6mph /  9.7km/h 95% 0in /  0.0mm
00:30 41.4 °F /  5.2 °C 41 °F /  5.0 °C 29.6in /  1000.9hPa SW 4mph /  6.4km/h 6mph /  9.7km/h 95% 0in /  0.0mm
00:33 41.4 °F /  5.2 °C 41 °F /  5.0 °C 29.6in /  1000.9hPa SSW 3.8mph /  6.1km/h 6.5mph /  10.5km/h 96% 0in /  0.0mm
00:38 41.2 °F /  5.1 °C 41 °F /  5.0 °C 29.6in /  1000.9hPa SSW 1.6mph /  2.6km/h 6.5mph /  10.5km/h 96% 0in /  0.0mm
00:43 41.2 °F /  5.1 °C 41 °F /  5.0 °C 29.5in /  999.9hPa Calm   5.4mph /  8.7km/h 96% 0in /  0.0mm
00:48 41 °F /  5.0 °C 41 °F /  5.0 °C 29.5in /  999.9hPa SSW 4.3mph /  6.9km/h 4.7mph /  7.6km/h 96% 0in /  0.0mm
00:53 41 °F /  5.0 °C 41 °F /  5.0 °C 29.5in /  999.9hPa Calm   6mph /  9.7km/h 96% 0in /  0.0mm
00:58 41 °F /  5.0 °C 41 °F /  5.0 °C 29.6in /  1000.9hPa Calm   6.5mph /  10.5km/h 96% 0in /  0.0mm
01:03 41 °F /  5.0 °C 41 °F /  5.0 °C 29.6in /  1000.9hPa SSW 4.3mph /  6.9km/h 6.5mph /  10.5km/h 96% 0in /  0.0mm
01:04 41 °F /  5.0 °C 41 °F /  5.0 °C 29.6in /  1000.9hPa SW 6.3mph /  10.1km/h 6.3mph /  10.1km/h 96% 0in /  0.0mm
01:05 41 °F /  5.0 °C 41 °F /  5.0 °C 29.6in /  1000.9hPa SSW 5.4mph /  8.7km/h 6.3mph /  10.1km/h 96% 0in /  0.0mm
01:11 41 °F /  5.0 °C 41 °F /  5.0 °C 29.6in /  1000.9hPa SSW 3.8mph /  6.1km/h 6.3mph /  10.1km/h 96% 0in /  0.0mm
01:16 41 °F /  5.0 °C 41 °F /  5.0 °C 29.6in /  1000.9hPa Calm   5.8mph /  9.3km/h 96% 0in /  0.0mm
01:18 41 °F /  5.0 °C 41 °F /  5.0 °C 29.6in /  1000.9hPa SSW 4.3mph /  6.9km/h 5.8mph /  9.3km/h 96% 0in /  0.0mm
01:23 41 °F /  5.0 °C 41 °F /  5.0 °C 29.6in /  1000.9hPa Calm   5.8mph /  9.3km/h 96% 0in /  0.0mm
01:28 40.8 °F /  4.9 °C 41 °F /  5.0 °C 29.6in /  1000.9hPa Calm   5.4mph /  8.7km/h 96% 0in /  0.0mm
01:31 40.6 °F /  4.8 °C 39.2 °F /  4.0 °C 29.6in /  1000.9hPa Calm   4.3mph /  6.9km/h 96% 0in /  0.0mm
01:36 40.6 °F /  4.8 °C 39.2 °F /  4.0 °C 29.6in /  1000.9hPa Calm   3.8mph /  6.1km/h 96% 0in /  0.0mm
01:41 40.5 °F /  4.7 °C 39.2 °F /  4.0 °C 29.6in /  1000.9hPa Calm   3.8mph /  6.1km/h 96% 0in /  0.0mm
01:46 40.5 °F /  4.7 °C 39.2 °F /  4.0 °C 29.6in /  1000.9hPa Calm   4.7mph /  7.6km/h 96% 0in /  0.0mm
01:51 40.5 °F /  4.7 °C 39.2 °F /  4.0 °C 29.6in /  1000.9hPa Calm   4.7mph /  7.6km/h 96% 0in /  0.0mm
01:56 40.5 °F /  4.7 °C 39.2 °F /  4.0 °C 29.6in /  1000.9hPa Calm   3.6mph /  5.8km/h 96% 0in /  0.0mm
02:00 40.3 °F /  4.6 °C 39.2 °F /  4.0 °C 29.6in /  1000.9hPa Calm   2.9mph /  4.7km/h 96% 0in /  0.0mm
02:04 40.3 °F /  4.6 °C 39.2 °F /  4.0 °C 29.6in /  1000.9hPa Calm   2.9mph /  4.7km/h 96% 0in /  0.0mm
02:07 40.3 °F /  4.6 °C 39.2 °F /  4.0 °C 29.6in /  1000.9hPa Calm   2.9mph /  4.7km/h 96% 0in /  0.0mm
02:12 40.3 °F /  4.6 °C 39.2 °F /  4.0 °C 29.6in /  1000.9hPa SSW 0.9mph /  1.4km/h 2.5mph /  4.0km/h 96% 0in /  0.0mm
02:13 40.3 °F /  4.6 °C 39.2 °F /  4.0 °C 29.6in /  1000.9hPa Calm   2.5mph /  4.0km/h 96% 0in /  0.0mm
02:14 40.3 °F /  4.6 °C 39.2 °F /  4.0 °C 29.6in /  1000.9hPa Calm   2.5mph /  4.0km/h 96% 0in /  0.0mm
02:19 39.9 °F /  4.4 °C 39.2 °F /  4.0 °C 29.6in /  1000.9hPa Calm   2.5mph /  4.0km/h 96% 0in /  0.0mm
02:24 39.9 °F /  4.4 °C 39.2 °F /  4.0 °C 29.6in /  1000.9hPa Calm     96% 0in /  0.0mm
02:26 39.7 °F /  4.3 °C 39.2 °F /  4.0 °C 29.6in /  1000.9hPa Calm     96% 0in /  0.0mm
02:31 39.6 °F /  4.2 °C 39.2 °F /  4.0 °C 29.6in /  1000.9hPa Calm     96% 0in /  0.0mm
02:34 39.4 °F /  4.1 °C 39.2 °F /  4.0 °C 29.6in /  1000.9hPa Calm     96% 0in /  0.0mm
02:39 39.4 °F /  4.1 °C 39.2 °F /  4.0 °C 29.6in /  1000.9hPa Calm     96% 0in /  0.0mm
02:40 39.4 °F /  4.1 °C 39.2 °F /  4.0 °C 29.6in /  1000.9hPa Calm     96% 0in /  0.0mm
02:46 39.2 °F /  4.0 °C 39.2 °F /  4.0 °C 29.6in /  1000.9hPa Calm     96% 0in /  0.0mm
02:47 39.2 °F /  4.0 °C 39.2 °F /  4.0 °C 29.6in /  1000.9hPa Calm     96% 0in /  0.0mm
02:52 39 °F /  3.9 °C 39.2 °F /  4.0 °C 29.6in /  1000.9hPa Calm     96% 0in /  0.0mm
02:54 38.8 °F /  3.8 °C 37.4 °F /  3.0 °C 29.6in /  1000.9hPa Calm     96% 0in /  0.0mm
02:59 38.8 °F /  3.8 °C 37.4 °F /  3.0 °C 29.6in /  1000.9hPa Calm     97% 0in /  0.0mm
03:04 38.7 °F /  3.7 °C 37.4 °F /  3.0 °C 29.6in /  1000.9hPa Calm     97% 0in /  0.0mm
03:09 38.3 °F /  3.5 °C 37.4 °F /  3.0 °C 29.6in /  1000.9hPa Calm     97% 0in /  0.0mm
03:14 38.1 °F /  3.4 °C 37.4 °F /  3.0 °C 29.6in /  1000.9hPa Calm     96% 0in /  0.0mm
03:25 37.9 °F /  3.3 °C 37.4 °F /  3.0 °C 29.6in /  1000.9hPa Calm     97% 0in /  0.0mm
03:30 38.1 °F /  3.4 °C 37.4 °F /  3.0 °C 29.6in /  1000.9hPa Calm     97% 0in /  0.0mm
03:34 38.3 °F /  3.5 °C 39.2 °F /  4.0 °C 29.6in /  1000.9hPa Calm     98% 0in /  0.0mm
03:39 38.7 °F /  3.7 °C 39.2 °F /  4.0 °C 29.6in /  1000.9hPa Calm     98% 0in /  0.0mm
03:44 38.7 °F /  3.7 °C 39.2 °F /  4.0 °C 29.6in /  1000.9hPa Calm     98% 0in /  0.0mm
03:49 38.8 °F /  3.8 °C 39.2 °F /  4.0 °C 29.6in /  1000.9hPa Calm   1.1mph /  1.8km/h 98% 0in /  0.0mm
03:53 39 °F /  3.9 °C 39.2 °F /  4.0 °C 29.6in /  1000.9hPa Calm   1.1mph /  1.8km/h 98% 0in /  0.0mm
03:58 39 °F /  3.9 °C 39.2 °F /  4.0 °C 29.6in /  1000.9hPa Calm   0.9mph /  1.4km/h 98% 0in /  0.0mm
04:03 38.8 °F /  3.8 °C 39.2 °F /  4.0 °C 29.6in /  1000.9hPa Calm     98% 0in /  0.0mm
04:08 38.8 °F /  3.8 °C 39.2 °F /  4.0 °C 29.6in /  1000.9hPa Calm     98% 0in /  0.0mm
04:13 38.8 °F /  3.8 °C 39.2 °F /  4.0 °C 29.6in /  1000.9hPa Calm   0.9mph /  1.4km/h 98% 0in /  0.0mm
04:16 38.8 °F /  3.8 °C 39.2 °F /  4.0 °C 29.6in /  1000.9hPa Calm   0.9mph /  1.4km/h 98% 0in /  0.0mm
04:26 38.8 °F /  3.8 °C 39.2 °F /  4.0 °C 29.6in /  1000.9hPa Calm     98% 0in /  0.0mm
04:28 38.8 °F /  3.8 °C 39.2 °F /  4.0 °C 29.6in /  1000.9hPa Calm     98% 0in /  0.0mm
04:33 38.7 °F /  3.7 °C 39.2 °F /  4.0 °C 29.6in /  1000.9hPa Calm     98% 0in /  0.0mm
04:39 38.7 °F /  3.7 °C 39.2 °F /  4.0 °C 29.6in /  1000.9hPa Calm     98% 0in /  0.0mm
04:44 38.7 °F /  3.7 °C 39.2 °F /  4.0 °C 29.6in /  1001.9hPa Calm     98% 0in /  0.0mm
04:49 38.7 °F /  3.7 °C 39.2 °F /  4.0 °C 29.6in /  1001.9hPa Calm     98% 0in /  0.0mm
04:54 38.5 °F /  3.6 °C 39.2 °F /  4.0 °C 29.6in /  1001.9hPa Calm     98% 0in /  0.0mm
05:00 38.7 °F /  3.7 °C 39.2 °F /  4.0 °C 29.6in /  1000.9hPa Calm   1.3mph /  2.1km/h 98% 0in /  0.0mm
05:05 38.7 °F /  3.7 °C 39.2 °F /  4.0 °C 29.6in /  1000.9hPa Calm   1.3mph /  2.1km/h 98% 0in /  0.0mm
05:10 38.8 °F /  3.8 °C 39.2 °F /  4.0 °C 29.6in /  1000.9hPa Calm   1.1mph /  1.8km/h 98% 0in /  0.0mm
05:15 39 °F /  3.9 °C 39.2 °F /  4.0 °C 29.6in /  1001.9hPa Calm   2.5mph /  4.0km/h 98% 0in /  0.0mm
05:20 39.2 °F /  4.0 °C 39.2 °F /  4.0 °C 29.6in /  1001.9hPa Calm   2.5mph /  4.0km/h 98% 0in /  0.0mm
05:25 39.2 °F /  4.0 °C 39.2 °F /  4.0 °C 29.6in /  1001.9hPa Calm   2.7mph /  4.3km/h 98% 0in /  0.0mm
05:30 39.4 °F /  4.1 °C 39.2 °F /  4.0 °C 29.6in /  1001.9hPa Calm   3.4mph /  5.5km/h 98% 0in /  0.0mm
05:35 39.6 °F /  4.2 °C 39.2 °F /  4.0 °C 29.6in /  1001.9hPa Calm   3.4mph /  5.5km/h 98% 0in /  0.0mm
05:36 39.6 °F /  4.2 °C 39.2 °F /  4.0 °C 29.6in /  1001.9hPa Calm   3.4mph /  5.5km/h 98% 0in /  0.0mm
05:41 39.7 °F /  4.3 °C 39.2 °F /  4.0 °C 29.6in /  1001.9hPa SSE 0.9mph /  1.4km/h 2.9mph /  4.7km/h 98% 0in /  0.0mm
05:46 39.7 °F /  4.3 °C 39.2 °F /  4.0 °C 29.6in /  1001.9hPa SSE 2.9mph /  4.7km/h 2.9mph /  4.7km/h 98% 0in /  0.0mm
05:51 39.9 °F /  4.4 °C 39.2 °F /  4.0 °C 29.6in /  1001.9hPa Calm   2.9mph /  4.7km/h 98% 0in /  0.0mm
05:57 39.9 °F /  4.4 °C 39.2 °F /  4.0 °C 29.6in /  1001.9hPa Calm     98% 0in /  0.0mm
06:02 40.1 °F /  4.5 °C 41 °F /  5.0 °C 29.6in /  1001.9hPa Calm     98% 0in /  0.0mm
06:07 40.1 °F /  4.5 °C 41 °F /  5.0 °C 29.6in /  1001.9hPa Calm     98% 0in /  0.0mm
06:08 40.1 °F /  4.5 °C 41 °F /  5.0 °C 29.6in /  1001.9hPa Calm     98% 0in /  0.0mm
06:13 40.3 °F /  4.6 °C 41 °F /  5.0 °C 29.6in /  1001.9hPa Calm     98% 0in /  0.0mm
06:18 40.3 °F /  4.6 °C 41 °F /  5.0 °C 29.6in /  1001.9hPa Calm     98% 0in /  0.0mm
06:23 40.3 °F /  4.6 °C 41 °F /  5.0 °C 29.6in /  1001.9hPa Calm     98% 0in /  0.0mm
06:28 40.3 °F /  4.6 °C 41 °F /  5.0 °C 29.6in /  1001.9hPa Calm     98% 0in /  0.0mm
06:32 40.3 °F /  4.6 °C 41 °F /  5.0 °C 29.6in /  1001.9hPa Calm     98% 0in /  0.0mm
06:37 40.5 °F /  4.7 °C 41 °F /  5.0 °C 29.6in /  1001.9hPa Calm     98% 0in /  0.0mm
06:42 40.5 °F /  4.7 °C 41 °F /  5.0 °C 29.6in /  1001.9hPa Calm     98% 0in /  0.0mm
06:47 40.5 °F /  4.7 °C 41 °F /  5.0 °C 29.6in /  1001.9hPa Calm     98% 0in /  0.0mm
06:52 40.6 °F /  4.8 °C 41 °F /  5.0 °C 29.6in /  1001.9hPa Calm     98% 0in /  0.0mm
06:57 40.6 °F /  4.8 °C 41 °F /  5.0 °C 29.6in /  1001.9hPa Calm     98% 0in /  0.0mm
06:59 40.6 °F /  4.8 °C 41 °F /  5.0 °C 29.6in /  1001.9hPa Calm     98% 0in /  0.0mm
07:04 40.6 °F /  4.8 °C 41 °F /  5.0 °C 29.6in /  1001.9hPa Calm     98% 0in /  0.0mm
07:09 40.6 °F /  4.8 °C 41 °F /  5.0 °C 29.6in /  1001.9hPa Calm     98% 0in /  0.0mm
07:10 40.6 °F /  4.8 °C 41 °F /  5.0 °C 29.6in /  1001.9hPa Calm     98% 0in /  0.0mm
07:14 40.6 °F /  4.8 °C 41 °F /  5.0 °C 29.6in /  1001.9hPa Calm     98% 0in /  0.0mm
07:19 40.6 °F /  4.8 °C 41 °F /  5.0 °C 29.6in /  1001.9hPa Calm     98% 0in /  0.0mm
07:22 40.8 °F /  4.9 °C 41 °F /  5.0 °C 29.6in /  1001.9hPa Calm     98% 0in /  0.0mm
07:27 40.8 °F /  4.9 °C 41 °F /  5.0 °C 29.6in /  1002.9hPa Calm     98% 0in /  0.0mm
07:32 40.8 °F /  4.9 °C 41 °F /  5.0 °C 29.6in /  1002.9hPa Calm     98% 0in /  0.0mm
07:37 40.8 °F /  4.9 °C 41 °F /  5.0 °C 29.6in /  1002.9hPa Calm     98% 0in /  0.0mm
07:39 40.8 °F /  4.9 °C 41 °F /  5.0 °C 29.6in /  1002.9hPa Calm     98% 0in /  0.0mm
07:45 40.8 °F /  4.9 °C 41 °F /  5.0 °C 29.6in /  1002.9hPa Calm     98% 0in /  0.0mm
07:50 40.8 °F /  4.9 °C 41 °F /  5.0 °C 29.6in /  1002.9hPa Calm     98% 0in /  0.0mm
07:52 41 °F /  5.0 °C 41 °F /  5.0 °C 29.6in /  1002.9hPa Calm     98% 0in /  0.0mm
07:57 41 °F /  5.0 °C 41 °F /  5.0 °C 29.6in /  1002.9hPa Calm     98% 0in /  0.0mm
08:01 41 °F /  5.0 °C 41 °F /  5.0 °C 29.6in /  1002.9hPa Calm     98% 0in /  0.0mm
08:07 41 °F /  5.0 °C 41 °F /  5.0 °C 29.6in /  1002.9hPa Calm     98% 0in /  0.0mm
08:12 41 °F /  5.0 °C 41 °F /  5.0 °C 29.6in /  1002.9hPa Calm     98% 0in /  0.0mm
08:17 41 °F /  5.0 °C 41 °F /  5.0 °C 29.6in /  1002.9hPa Calm     98% 0in /  0.0mm
08:18 41 °F /  5.0 °C 41 °F /  5.0 °C 29.6in /  1002.9hPa Calm     98% 0in /  0.0mm
08:23 41 °F /  5.0 °C 41 °F /  5.0 °C 29.6in /  1002.9hPa Calm     98% 0in /  0.0mm
08:28 41 °F /  5.0 °C 41 °F /  5.0 °C 29.6in /  1002.9hPa Calm     98% 0in /  0.0mm
08:33 40.8 °F /  4.9 °C 41 °F /  5.0 °C 29.6in /  1002.9hPa Calm     98% 0in /  0.0mm
08:38 40.8 °F /  4.9 °C 41 °F /  5.0 °C 29.6in /  1002.9hPa Calm     98% 0in /  0.0mm
08:43 40.6 °F /  4.8 °C 41 °F /  5.0 °C 29.6in /  1002.9hPa Calm     98% 0.01in /  0.3mm
08:49 40.6 °F /  4.8 °C 41 °F /  5.0 °C 29.6in /  1002.9hPa Calm     98% 0.01in /  0.3mm
08:54 40.6 °F /  4.8 °C 41 °F /  5.0 °C 29.6in /  1002.9hPa Calm     98% 0.01in /  0.3mm
08:59 40.5 °F /  4.7 °C 41 °F /  5.0 °C 29.6in /  1003.9hPa Calm     98% 0.01in /  0.3mm
09:04 40.5 °F /  4.7 °C 41 °F /  5.0 °C 29.6in /  1003.9hPa Calm     98% 0.01in /  0.3mm
09:09 40.5 °F /  4.7 °C 41 °F /  5.0 °C 29.6in /  1003.9hPa Calm     98% 0.01in /  0.3mm
09:14 40.5 °F /  4.7 °C 41 °F /  5.0 °C 29.7in /  1005.0hPa Calm     98% 0.01in /  0.3mm
09:19 40.5 °F /  4.7 °C 41 °F /  5.0 °C 29.7in /  1005.0hPa Calm     98% 0.01in /  0.3mm
09:24 40.5 °F /  4.7 °C 41 °F /  5.0 °C 29.7in /  1005.0hPa Calm     98% 0.01in /  0.3mm
09:30 40.5 °F /  4.7 °C 41 °F /  5.0 °C 29.7in /  1005.0hPa Calm   2.9mph /  4.7km/h 98% 0.01in /  0.3mm
09:35 40.5 °F /  4.7 °C 41 °F /  5.0 °C 29.7in /  1005.0hPa Calm   2.9mph /  4.7km/h 98% 0.01in /  0.3mm
09:40 40.5 °F /  4.7 °C 41 °F /  5.0 °C 29.7in /  1005.0hPa NNE 3.8mph /  6.1km/h 3.8mph /  6.1km/h 98% 0.01in /  0.3mm
09:45 40.5 °F /  4.7 °C 41 °F /  5.0 °C 29.7in /  1005.0hPa Calm   3.8mph /  6.1km/h 98% 0in /  0.0mm
09:50 40.5 °F /  4.7 °C 41 °F /  5.0 °C 29.7in /  1005.0hPa Calm   3.8mph /  6.1km/h 98% 0in /  0.0mm
09:55 40.6 °F /  4.8 °C 41 °F /  5.0 °C 29.7in /  1005.0hPa Calm   3.1mph /  5.0km/h 98% 0in /  0.0mm
09:58 40.6 °F /  4.8 °C 41 °F /  5.0 °C 29.7in /  1005.0hPa Calm   3.1mph /  5.0km/h 98% 0in /  0.0mm
10:03 40.6 °F /  4.8 °C 41 °F /  5.0 °C 29.7in /  1005.0hPa Calm   3.1mph /  5.0km/h 98% 0in /  0.0mm
10:06 40.8 °F /  4.9 °C 41 °F /  5.0 °C 29.7in /  1005.0hPa Calm     98% 0in /  0.0mm
10:11 41 °F /  5.0 °C 41 °F /  5.0 °C 29.7in /  1005.0hPa Calm     98% 0in /  0.0mm
10:16 41.2 °F /  5.1 °C 41 °F /  5.0 °C 29.7in /  1005.0hPa Calm     98% 0in /  0.0mm
10:21 41.2 °F /  5.1 °C 41 °F /  5.0 °C 29.7in /  1005.0hPa NE 1.3mph /  2.1km/h 2.7mph /  4.3km/h 98% 0in /  0.0mm
10:26 41.4 °F /  5.2 °C 41 °F /  5.0 °C 29.7in /  1006.0hPa Calm   3.4mph /  5.5km/h 98% 0in /  0.0mm
10:30 41.5 °F /  5.3 °C 42.8 °F /  6.0 °C 29.7in /  1006.0hPa Calm   3.4mph /  5.5km/h 98% 0in /  0.0mm
10:35 41.7 °F /  5.4 °C 42.8 °F /  6.0 °C 29.7in /  1006.0hPa Calm   2.7mph /  4.3km/h 98% 0in /  0.0mm
10:36 41.7 °F /  5.4 °C 42.8 °F /  6.0 °C 29.7in /  1006.0hPa Calm   2.7mph /  4.3km/h 98% 0in /  0.0mm
10:41 41.9 °F /  5.5 °C 42.8 °F /  6.0 °C 29.7in /  1006.0hPa NNE 1.1mph /  1.8km/h 3.4mph /  5.5km/h 98% 0in /  0.0mm
10:46 42.1 °F /  5.6 °C 42.8 °F /  6.0 °C 29.7in /  1006.0hPa Calm   3.4mph /  5.5km/h 98% 0in /  0.0mm
10:51 42.3 °F /  5.7 °C 42.8 °F /  6.0 °C 29.7in /  1006.0hPa Calm   3.4mph /  5.5km/h 98% 0in /  0.0mm
10:52 42.3 °F /  5.7 °C 42.8 °F /  6.0 °C 29.7in /  1006.0hPa NNE 2.7mph /  4.3km/h 3.4mph /  5.5km/h 98% 0in /  0.0mm
10:57 42.3 °F /  5.7 °C 42.8 °F /  6.0 °C 29.7in /  1006.0hPa NE 3.8mph /  6.1km/h 4.9mph /  7.9km/h 98% 0in /  0.0mm
11:00 42.3 °F /  5.7 °C 42.8 °F /  6.0 °C 29.7in /  1006.0hPa NNE 3.1mph /  5.0km/h 4.9mph /  7.9km/h 98% 0in /  0.0mm
11:06 42.4 °F /  5.8 °C 42.8 °F /  6.0 °C 29.7in /  1006.0hPa NE 3.6mph /  5.8km/h 4.7mph /  7.6km/h 98% 0in /  0.0mm
11:07 42.4 °F /  5.8 °C 42.8 °F /  6.0 °C 29.7in /  1006.0hPa NE 5.6mph /  9.0km/h 5.6mph /  9.0km/h 98% 0in /  0.0mm
11:12 42.4 °F /  5.8 °C 42.8 °F /  6.0 °C 29.7in /  1006.0hPa NE 4mph /  6.4km/h 5.8mph /  9.3km/h 98% 0in /  0.0mm
11:17 42.4 °F /  5.8 °C 42.8 °F /  6.0 °C 29.7in /  1006.0hPa Calm   5.8mph /  9.3km/h 98% 0in /  0.0mm
11:18 42.4 °F /  5.8 °C 42.8 °F /  6.0 °C 29.7in /  1006.0hPa Calm   5.8mph /  9.3km/h 98% 0in /  0.0mm
11:24 42.6 °F /  5.9 °C 42.8 °F /  6.0 °C 29.7in /  1006.0hPa NE 2.9mph /  4.7km/h 4.9mph /  7.9km/h 98% 0in /  0.0mm
11:29 42.8 °F /  6.0 °C 42.8 °F /  6.0 °C 29.7in /  1006.0hPa Calm   4.7mph /  7.6km/h 98% 0in /  0.0mm
11:34 43 °F /  6.1 °C 42.8 °F /  6.0 °C 29.7in /  1006.0hPa NNE 4.3mph /  6.9km/h 4.5mph /  7.2km/h 98% 0in /  0.0mm
11:39 43 °F /  6.1 °C 42.8 °F /  6.0 °C 29.7in /  1006.0hPa East 3.6mph /  5.8km/h 4.3mph /  6.9km/h 98% 0in /  0.0mm
11:44 43.2 °F /  6.2 °C 42.8 °F /  6.0 °C 29.7in /  1007.0hPa NNE 4.3mph /  6.9km/h 4.3mph /  6.9km/h 98% 0in /  0.0mm
11:49 43.3 °F /  6.3 °C 42.8 °F /  6.0 °C 29.7in /  1007.0hPa NE 3.8mph /  6.1km/h 4.3mph /  6.9km/h 98% 0in /  0.0mm
11:54 43.3 °F /  6.3 °C 42.8 °F /  6.0 °C 29.7in /  1007.0hPa Calm   3.8mph /  6.1km/h 98% 0in /  0.0mm
11:56 43.5 °F /  6.4 °C 42.8 °F /  6.0 °C 29.7in /  1007.0hPa Calm   3.8mph /  6.1km/h 98% 0in /  0.0mm
12:01 43.5 °F /  6.4 °C 42.8 °F /  6.0 °C 29.7in /  1007.0hPa Calm   5.4mph /  8.7km/h 98% 0in /  0.0mm
12:07 43.5 °F /  6.4 °C 42.8 °F /  6.0 °C 29.7in /  1007.0hPa NE 5.6mph /  9.0km/h 5.6mph /  9.0km/h 98% 0in /  0.0mm
12:12 43.5 °F /  6.4 °C 42.8 °F /  6.0 °C 29.7in /  1007.0hPa ENE 4.3mph /  6.9km/h 6mph /  9.7km/h 98% 0in /  0.0mm
12:17 43.7 °F /  6.5 °C 44.6 °F /  7.0 °C 29.7in /  1007.0hPa Calm   6mph /  9.7km/h 98% 0in /  0.0mm
12:22 43.7 °F /  6.5 °C 44.6 °F /  7.0 °C 29.7in /  1007.0hPa East 5.4mph /  8.7km/h 5.4mph /  8.7km/h 98% 0in /  0.0mm
12:27 43.9 °F /  6.6 °C 44.6 °F /  7.0 °C 29.7in /  1006.0hPa NE 3.6mph /  5.8km/h 5.6mph /  9.0km/h 98% 0in /  0.0mm
12:32 43.9 °F /  6.6 °C 44.6 °F /  7.0 °C 29.7in /  1006.0hPa NE 4.9mph /  7.9km/h 6.3mph /  10.1km/h 98% 0in /  0.0mm
12:37 44.1 °F /  6.7 °C 44.6 °F /  7.0 °C 29.7in /  1006.0hPa NNE 4.3mph /  6.9km/h 6.3mph /  10.1km/h 98% 0in /  0.0mm
12:42 44.1 °F /  6.7 °C 44.6 °F /  7.0 °C 29.7in /  1007.0hPa NE 4.9mph /  7.9km/h 6.3mph /  10.1km/h 98% 0in /  0.0mm
12:43 44.1 °F /  6.7 °C 44.6 °F /  7.0 °C 29.7in /  1007.0hPa NNE 5.4mph /  8.7km/h 6.3mph /  10.1km/h 98% 0in /  0.0mm
12:48 44.1 °F /  6.7 °C 44.6 °F /  7.0 °C 29.7in /  1007.0hPa NE 6mph /  9.7km/h 7.2mph /  11.6km/h 98% 0in /  0.0mm
12:54 43.9 °F /  6.6 °C 44.6 °F /  7.0 °C 29.7in /  1007.0hPa NE 4mph /  6.4km/h 7.2mph /  11.6km/h 98% 0in /  0.0mm
12:55 43.9 °F /  6.6 °C 44.6 °F /  7.0 °C 29.7in /  1007.0hPa NNE 5.6mph /  9.0km/h 7.2mph /  11.6km/h 98% 0in /  0.0mm
13:00 43.9 °F /  6.6 °C 44.6 °F /  7.0 °C 29.7in /  1006.0hPa North 3.4mph /  5.5km/h 6.3mph /  10.1km/h 98% 0in /  0.0mm
13:06 44.1 °F /  6.7 °C 44.6 °F /  7.0 °C 29.7in /  1006.0hPa NNE 3.1mph /  5.0km/h 6mph /  9.7km/h 98% 0in /  0.0mm
13:11 44.1 °F /  6.7 °C 44.6 °F /  7.0 °C 29.7in /  1007.0hPa NE 4.3mph /  6.9km/h 6mph /  9.7km/h 98% 0in /  0.0mm
13:21 43.9 °F /  6.6 °C 44.6 °F /  7.0 °C 29.7in /  1007.0hPa NNW 3.1mph /  5.0km/h 7.2mph /  11.6km/h 98% 0in /  0.0mm
13:27 44.1 °F /  6.7 °C 44.6 °F /  7.0 °C 29.7in /  1007.0hPa North 6.5mph /  10.5km/h 7.2mph /  11.6km/h 98% 0in /  0.0mm
13:29 44.1 °F /  6.7 °C 44.6 °F /  7.0 °C 29.7in /  1007.0hPa NNE 3.4mph /  5.5km/h 7.2mph /  11.6km/h 98% 0in /  0.0mm
13:31 44.1 °F /  6.7 °C 44.6 °F /  7.0 °C 29.7in /  1007.0hPa North 3.6mph /  5.8km/h 7.4mph /  11.9km/h 98% 0in /  0.0mm
13:36 44.1 °F /  6.7 °C 44.6 °F /  7.0 °C 29.7in /  1007.0hPa ENE 2mph /  3.2km/h 7.4mph /  11.9km/h 98% 0in /  0.0mm
13:41 44.1 °F /  6.7 °C 44.6 °F /  7.0 °C 29.7in /  1007.0hPa NE 1.3mph /  2.1km/h 6.5mph /  10.5km/h 98% 0in /  0.0mm
13:44 44.1 °F /  6.7 °C 44.6 °F /  7.0 °C 29.7in /  1007.0hPa NE 6.5mph /  10.5km/h 6.5mph /  10.5km/h 98% 0in /  0.0mm
13:49 44.2 °F /  6.8 °C 44.6 °F /  7.0 °C 29.7in /  1007.0hPa Calm   6.5mph /  10.5km/h 98% 0in /  0.0mm
13:54 44.2 °F /  6.8 °C 44.6 °F /  7.0 °C 29.7in /  1007.0hPa NE 5.6mph /  9.0km/h 7.8mph /  12.6km/h 98% 0in /  0.0mm
13:56 44.2 °F /  6.8 °C 44.6 °F /  7.0 °C 29.7in /  1007.0hPa NNE 5.8mph /  9.3km/h 7.8mph /  12.6km/h 98% 0in /  0.0mm
14:01 44.2 °F /  6.8 °C 44.6 °F /  7.0 °C 29.7in /  1007.0hPa NE 5.4mph /  8.7km/h 6.5mph /  10.5km/h 98% 0in /  0.0mm
14:02 44.2 °F /  6.8 °C 44.6 °F /  7.0 °C 29.7in /  1007.0hPa NE 6mph /  9.7km/h 6.5mph /  10.5km/h 98% 0in /  0.0mm
14:07 44.2 °F /  6.8 °C 44.6 °F /  7.0 °C 29.7in /  1007.0hPa NNE 4mph /  6.4km/h 6.5mph /  10.5km/h 98% 0in /  0.0mm
14:12 44.2 °F /  6.8 °C 44.6 °F /  7.0 °C 29.7in /  1007.0hPa North 4.3mph /  6.9km/h 6.5mph /  10.5km/h 98% 0in /  0.0mm
14:17 44.4 °F /  6.9 °C 44.6 °F /  7.0 °C 29.7in /  1007.0hPa NNE 4.9mph /  7.9km/h 6.3mph /  10.1km/h 98% 0in /  0.0mm
14:19 44.4 °F /  6.9 °C 44.6 °F /  7.0 °C 29.7in /  1007.0hPa NNE 4.3mph /  6.9km/h 6.3mph /  10.1km/h 98% 0in /  0.0mm
14:25 44.6 °F /  7.0 °C 44.6 °F /  7.0 °C 29.7in /  1007.0hPa NE 6mph /  9.7km/h 6mph /  9.7km/h 98% 0in /  0.0mm
14:30 44.6 °F /  7.0 °C 44.6 °F /  7.0 °C 29.8in /  1008.0hPa NE 4.3mph /  6.9km/h 7.4mph /  11.9km/h 98% 0in /  0.0mm
14:35 44.6 °F /  7.0 °C 44.6 °F /  7.0 °C 29.8in /  1008.0hPa NNE 5.6mph /  9.0km/h 7.4mph /  11.9km/h 98% 0in /  0.0mm
14:40 44.8 °F /  7.1 °C 44.6 °F /  7.0 °C 29.8in /  1008.0hPa NE 1.6mph /  2.6km/h 8.1mph /  13.0km/h 98% 0in /  0.0mm
14:45 44.8 °F /  7.1 °C 44.6 °F /  7.0 °C 29.8in /  1008.0hPa NNE 5.4mph /  8.7km/h 8.1mph /  13.0km/h 98% 0in /  0.0mm
14:51 44.8 °F /  7.1 °C 44.6 °F /  7.0 °C 29.8in /  1008.0hPa NE 6.5mph /  10.5km/h 7.2mph /  11.6km/h 98% 0in /  0.0mm
14:56 45 °F /  7.2 °C 44.6 °F /  7.0 °C 29.8in /  1008.0hPa NNE 6.5mph /  10.5km/h 8.5mph /  13.7km/h 98% 0in /  0.0mm
15:01 45 °F /  7.2 °C 44.6 °F /  7.0 °C 29.8in /  1008.0hPa NNE 8.5mph /  13.7km/h 8.7mph /  14.0km/h 98% 0in /  0.0mm
15:06 45 °F /  7.2 °C 44.6 °F /  7.0 °C 29.8in /  1008.0hPa NE 6.5mph /  10.5km/h 8.7mph /  14.0km/h 98% 0in /  0.0mm
15:11 45.1 °F /  7.3 °C 44.6 °F /  7.0 °C 29.8in /  1008.0hPa ENE 6mph /  9.7km/h 8.5mph /  13.7km/h 98% 0in /  0.0mm
15:15 45.1 °F /  7.3 °C 44.6 °F /  7.0 °C 29.8in /  1008.0hPa NE 6.7mph /  10.8km/h 7.8mph /  12.6km/h 98% 0in /  0.0mm
15:21 45 °F /  7.2 °C 44.6 °F /  7.0 °C 29.8in /  1008.0hPa NE 6.3mph /  10.1km/h 8.5mph /  13.7km/h 98% 0in /  0.0mm
15:26 45 °F /  7.2 °C 44.6 °F /  7.0 °C 29.8in /  1008.0hPa ENE 6.9mph /  11.1km/h 8.5mph /  13.7km/h 98% 0in /  0.0mm
15:31 45 °F /  7.2 °C 44.6 °F /  7.0 °C 29.8in /  1008.0hPa NE 5.4mph /  8.7km/h 7.8mph /  12.6km/h 98% 0in /  0.0mm
15:36 45 °F /  7.2 °C 44.6 °F /  7.0 °C 29.8in /  1008.0hPa NE 5.8mph /  9.3km/h 8.1mph /  13.0km/h 98% 0in /  0.0mm
15:41 45 °F /  7.2 °C 44.6 °F /  7.0 °C 29.8in /  1009.0hPa NNE 7.2mph /  11.6km/h 8.5mph /  13.7km/h 98% 0in /  0.0mm
15:46 45 °F /  7.2 °C 44.6 °F /  7.0 °C 29.8in /  1009.0hPa NE 6mph /  9.7km/h 8.5mph /  13.7km/h 98% 0in /  0.0mm
15:49 45 °F /  7.2 °C 44.6 °F /  7.0 °C 29.8in /  1009.0hPa NNE 6.3mph /  10.1km/h 7.6mph /  12.2km/h 98% 0in /  0.0mm
15:54 44.8 °F /  7.1 °C 44.6 °F /  7.0 °C 29.8in /  1009.0hPa NE 6.5mph /  10.5km/h 7.8mph /  12.6km/h 98% 0in /  0.0mm
15:59 44.8 °F /  7.1 °C 44.6 °F /  7.0 °C 29.8in /  1009.0hPa ENE 6.5mph /  10.5km/h 8.5mph /  13.7km/h 98% 0in /  0.0mm
16:01 44.8 °F /  7.1 °C 44.6 °F /  7.0 °C 29.8in /  1009.0hPa NNE 6.3mph /  10.1km/h 8.5mph /  13.7km/h 98% 0in /  0.0mm
16:06 44.8 °F /  7.1 °C 44.6 °F /  7.0 °C 29.8in /  1009.0hPa ENE 4.9mph /  7.9km/h 8.5mph /  13.7km/h 98% 0in /  0.0mm
16:11 44.8 °F /  7.1 °C 44.6 °F /  7.0 °C 29.8in /  1009.0hPa NE 4.3mph /  6.9km/h 9.6mph /  15.4km/h 98% 0in /  0.0mm
16:16 44.6 °F /  7.0 °C 44.6 °F /  7.0 °C 29.8in /  1009.0hPa NE 1.3mph /  2.1km/h 9.6mph /  15.4km/h 98% 0in /  0.0mm
16:21 44.6 °F /  7.0 °C 44.6 °F /  7.0 °C 29.8in /  1009.0hPa NE 6.3mph /  10.1km/h 8.5mph /  13.7km/h 98% 0in /  0.0mm
16:27 44.4 °F /  6.9 °C 44.6 °F /  7.0 °C 29.8in /  1009.0hPa NE 5.6mph /  9.0km/h 7.8mph /  12.6km/h 98% 0in /  0.0mm
16:32 44.4 °F /  6.9 °C 44.6 °F /  7.0 °C 29.8in /  1009.0hPa NE 5.8mph /  9.3km/h 7.8mph /  12.6km/h 98% 0in /  0.0mm
16:34 44.4 °F /  6.9 °C 44.6 °F /  7.0 °C 29.8in /  1009.0hPa NNE 6.5mph /  10.5km/h 7.6mph /  12.2km/h 98% 0in /  0.0mm
16:39 44.4 °F /  6.9 °C 44.6 °F /  7.0 °C 29.8in /  1009.0hPa NNE 6.3mph /  10.1km/h 8.7mph /  14.0km/h 98% 0in /  0.0mm
16:44 44.4 °F /  6.9 °C 44.6 °F /  7.0 °C 29.8in /  1009.0hPa NNE 6.7mph /  10.8km/h 8.7mph /  14.0km/h 98% 0in /  0.0mm
16:49 44.2 °F /  6.8 °C 44.6 °F /  7.0 °C 29.8in /  1009.0hPa NNE 4.9mph /  7.9km/h 8.5mph /  13.7km/h 98% 0in /  0.0mm
16:54 44.2 °F /  6.8 °C 44.6 °F /  7.0 °C 29.8in /  1009.0hPa NNE 5.8mph /  9.3km/h 7.4mph /  11.9km/h 98% 0in /  0.0mm
16:57 44.2 °F /  6.8 °C 44.6 °F /  7.0 °C 29.8in /  1009.0hPa ENE 5.6mph /  9.0km/h 7.4mph /  11.9km/h 98% 0in /  0.0mm
17:02 44.2 °F /  6.8 °C 44.6 °F /  7.0 °C 29.8in /  1009.0hPa NE 6.3mph /  10.1km/h 7.6mph /  12.2km/h 98% 0in /  0.0mm
17:07 44.2 °F /  6.8 °C 44.6 °F /  7.0 °C 29.8in /  1009.0hPa NE 7.4mph /  11.9km/h 7.8mph /  12.6km/h 98% 0in /  0.0mm
17:12 44.1 °F /  6.7 °C 44.6 °F /  7.0 °C 29.8in /  1009.0hPa NE 7.6mph /  12.2km/h 8.5mph /  13.7km/h 98% 0in /  0.0mm
17:14 44.1 °F /  6.7 °C 44.6 °F /  7.0 °C 29.8in /  1009.0hPa NE 7.8mph /  12.6km/h 8.5mph /  13.7km/h 98% 0in /  0.0mm
17:19 44.1 °F /  6.7 °C 44.6 °F /  7.0 °C 29.8in /  1009.0hPa NE 4mph /  6.4km/h 8.5mph /  13.7km/h 98% 0in /  0.0mm
17:21 44.1 °F /  6.7 °C 44.6 °F /  7.0 °C 29.8in /  1009.0hPa NE 5.8mph /  9.3km/h 8.5mph /  13.7km/h 98% 0in /  0.0mm
17:27 43.9 °F /  6.6 °C 44.6 °F /  7.0 °C 29.8in /  1010.0hPa NNE 6mph /  9.7km/h 7.4mph /  11.9km/h 98% 0in /  0.0mm
17:29 43.9 °F /  6.6 °C 44.6 °F /  7.0 °C 29.8in /  1010.0hPa NNE 6mph /  9.7km/h 7.4mph /  11.9km/h 98% 0in /  0.0mm
17:34 43.7 °F /  6.5 °C 44.6 °F /  7.0 °C 29.8in /  1010.0hPa NE 7.4mph /  11.9km/h 8.7mph /  14.0km/h 98% 0in /  0.0mm
17:39 43.7 °F /  6.5 °C 44.6 °F /  7.0 °C 29.8in /  1010.0hPa NNE 7.2mph /  11.6km/h 8.7mph /  14.0km/h 98% 0in /  0.0mm
17:44 43.7 °F /  6.5 °C 44.6 °F /  7.0 °C 29.8in /  1010.0hPa ENE 6mph /  9.7km/h 8.7mph /  14.0km/h 98% 0in /  0.0mm
17:49 43.7 °F /  6.5 °C 44.6 °F /  7.0 °C 29.8in /  1010.0hPa NE 6.9mph /  11.1km/h 8.7mph /  14.0km/h 98% 0in /  0.0mm
17:50 43.7 °F /  6.5 °C 44.6 °F /  7.0 °C 29.8in /  1010.0hPa NE 6.5mph /  10.5km/h 8.7mph /  14.0km/h 98% 0in /  0.0mm
17:55 43.7 °F /  6.5 °C 44.6 °F /  7.0 °C 29.8in /  1010.0hPa NE 5.8mph /  9.3km/h 8.7mph /  14.0km/h 98% 0in /  0.0mm
17:57 43.7 °F /  6.5 °C 44.6 °F /  7.0 °C 29.8in /  1010.0hPa NE 7.4mph /  11.9km/h 8.7mph /  14.0km/h 98% 0in /  0.0mm
18:03 43.7 °F /  6.5 °C 44.6 °F /  7.0 °C 29.8in /  1010.0hPa NE 7.4mph /  11.9km/h 8.7mph /  14.0km/h 98% 0in /  0.0mm
18:08 43.7 °F /  6.5 °C 44.6 °F /  7.0 °C 29.8in /  1010.0hPa NE 3.6mph /  5.8km/h 8.5mph /  13.7km/h 98% 0in /  0.0mm
18:13 43.7 °F /  6.5 °C 44.6 °F /  7.0 °C 29.9in /  1011.1hPa NE 6.3mph /  10.1km/h 8.5mph /  13.7km/h 98% 0in /  0.0mm
18:18 43.7 °F /  6.5 °C 44.6 °F /  7.0 °C 29.9in /  1011.1hPa NE 5.4mph /  8.7km/h 8.5mph /  13.7km/h 98% 0in /  0.0mm
18:24 43.7 °F /  6.5 °C 44.6 °F /  7.0 °C 29.9in /  1011.1hPa NNE 8.1mph /  13.0km/h 8.5mph /  13.7km/h 98% 0in /  0.0mm
18:29 43.7 °F /  6.5 °C 44.6 °F /  7.0 °C 29.9in /  1011.1hPa NE 7.6mph /  12.2km/h 8.5mph /  13.7km/h 98% 0in /  0.0mm
18:34 43.7 °F /  6.5 °C 44.6 °F /  7.0 °C 29.9in /  1011.1hPa NE 7.8mph /  12.6km/h 8.7mph /  14.0km/h 98% 0in /  0.0mm
18:36 43.7 °F /  6.5 °C 44.6 °F /  7.0 °C 29.9in /  1011.1hPa NE 8.5mph /  13.7km/h 8.9mph /  14.3km/h 98% 0in /  0.0mm
18:42 43.7 °F /  6.5 °C 44.6 °F /  7.0 °C 29.9in /  1011.1hPa NE 6.7mph /  10.8km/h 9.2mph /  14.8km/h 98% 0in /  0.0mm
18:47 43.5 °F /  6.4 °C 42.8 °F /  6.0 °C 29.9in /  1011.1hPa NNE 8.5mph /  13.7km/h 9.2mph /  14.8km/h 98% 0in /  0.0mm
18:52 43.5 °F /  6.4 °C 42.8 °F /  6.0 °C 29.9in /  1011.1hPa NNE 7.4mph /  11.9km/h 8.7mph /  14.0km/h 98% 0in /  0.0mm
18:54 43.5 °F /  6.4 °C 42.8 °F /  6.0 °C 29.9in /  1011.1hPa NE 7.4mph /  11.9km/h 8.7mph /  14.0km/h 98% 0in /  0.0mm
18:59 43.5 °F /  6.4 °C 42.8 °F /  6.0 °C 29.9in /  1011.1hPa NE 7.6mph /  12.2km/h 8.7mph /  14.0km/h 98% 0in /  0.0mm
19:02 43.5 °F /  6.4 °C 42.8 °F /  6.0 °C 29.9in /  1011.1hPa NE 5.4mph /  8.7km/h 8.7mph /  14.0km/h 98% 0in /  0.0mm
19:08 43.5 °F /  6.4 °C 42.8 °F /  6.0 °C 29.9in /  1011.1hPa NE 8.7mph /  14.0km/h 8.7mph /  14.0km/h 98% 0in /  0.0mm
19:13 43.5 °F /  6.4 °C 42.8 °F /  6.0 °C 29.9in /  1011.1hPa NNE 6.5mph /  10.5km/h 8.7mph /  14.0km/h 98% 0in /  0.0mm
19:18 43.5 °F /  6.4 °C 42.8 °F /  6.0 °C 29.9in /  1011.1hPa NE 7.6mph /  12.2km/h 8.5mph /  13.7km/h 98% 0in /  0.0mm
19:23 43.5 °F /  6.4 °C 42.8 °F /  6.0 °C 29.9in /  1011.1hPa ENE 4.3mph /  6.9km/h 9.8mph /  15.8km/h 98% 0in /  0.0mm
19:28 43.5 °F /  6.4 °C 42.8 °F /  6.0 °C 29.9in /  1011.1hPa NNE 10.3mph /  16.6km/h 10.3mph /  16.6km/h 98% 0in /  0.0mm
19:33 43.7 °F /  6.5 °C 44.6 °F /  7.0 °C 29.9in /  1011.1hPa East 8.7mph /  14.0km/h 10.3mph /  16.6km/h 98% 0in /  0.0mm
19:39 43.7 °F /  6.5 °C 44.6 °F /  7.0 °C 29.9in /  1011.1hPa NE 9.6mph /  15.4km/h 11mph /  17.7km/h 98% 0in /  0.0mm
19:49 43.7 °F /  6.5 °C 44.6 °F /  7.0 °C 29.9in /  1011.1hPa NE 8.7mph /  14.0km/h 10.5mph /  16.9km/h 98% 0in /  0.0mm
19:54 43.7 °F /  6.5 °C 44.6 °F /  7.0 °C 29.9in /  1011.1hPa NNE 7.4mph /  11.9km/h 10.5mph /  16.9km/h 98% 0in /  0.0mm
20:00 43.7 °F /  6.5 °C 44.6 °F /  7.0 °C 29.9in /  1012.1hPa NE 8.7mph /  14.0km/h 10.5mph /  16.9km/h 98% 0in /  0.0mm
20:05 43.7 °F /  6.5 °C 44.6 °F /  7.0 °C 29.9in /  1012.1hPa NE 8.5mph /  13.7km/h 9.2mph /  14.8km/h 98% 0in /  0.0mm
20:10 43.7 °F /  6.5 °C 44.6 °F /  7.0 °C 29.9in /  1012.1hPa NE 9.6mph /  15.4km/h 9.6mph /  15.4km/h 98% 0in /  0.0mm
20:15 43.7 °F /  6.5 °C 44.6 °F /  7.0 °C 29.9in /  1013.1hPa NNE 8.5mph /  13.7km/h 11mph /  17.7km/h 98% 0in /  0.0mm
20:20 43.7 °F /  6.5 °C 44.6 °F /  7.0 °C 29.9in /  1013.1hPa NE 10.1mph /  16.3km/h 11mph /  17.7km/h 98% 0in /  0.0mm
20:25 43.7 °F /  6.5 °C 44.6 °F /  7.0 °C 29.9in /  1013.1hPa NE 8.5mph /  13.7km/h 11mph /  17.7km/h 98% 0in /  0.0mm
20:26 43.7 °F /  6.5 °C 44.6 °F /  7.0 °C 29.9in /  1013.1hPa NE 8.5mph /  13.7km/h 11mph /  17.7km/h 98% 0in /  0.0mm
20:31 43.7 °F /  6.5 °C 44.6 °F /  7.0 °C 29.9in /  1013.1hPa NNE 10.1mph /  16.3km/h 16.1mph /  25.9km/h 98% 0in /  0.0mm
20:36 43.9 °F /  6.6 °C 44.6 °F /  7.0 °C 29.9in /  1013.1hPa NE 10.7mph /  17.2km/h 16.1mph /  25.9km/h 98% 0in /  0.0mm
20:41 43.9 °F /  6.6 °C 44.6 °F /  7.0 °C 29.9in /  1013.1hPa NE 6mph /  9.7km/h 12.8mph /  20.6km/h 98% 0in /  0.0mm
20:46 43.9 °F /  6.6 °C 44.6 °F /  7.0 °C 29.9in /  1013.1hPa NNE 7.8mph /  12.6km/h 13mph /  20.9km/h 98% 0in /  0.0mm
20:51 43.9 °F /  6.6 °C 42.8 °F /  6.0 °C 29.9in /  1013.1hPa NE 7.4mph /  11.9km/h 13.6mph /  21.9km/h 97% 0in /  0.0mm
20:55 43.9 °F /  6.6 °C 42.8 °F /  6.0 °C 29.9in /  1012.1hPa NNE 10.3mph /  16.6km/h 13.6mph /  21.9km/h 97% 0in /  0.0mm
21:00 43.9 °F /  6.6 °C 42.8 °F /  6.0 °C 29.9in /  1012.1hPa NE 10.1mph /  16.3km/h 14.8mph /  23.8km/h 97% 0in /  0.0mm
21:03 43.9 °F /  6.6 °C 42.8 °F /  6.0 °C 29.9in /  1012.1hPa NE 11mph /  17.7km/h 14.8mph /  23.8km/h 97% 0in /  0.0mm
21:08 43.9 °F /  6.6 °C 42.8 °F /  6.0 °C 29.9in /  1012.1hPa NE 9.6mph /  15.4km/h 12.5mph /  20.1km/h 97% 0in /  0.0mm
21:10 43.7 °F /  6.5 °C 42.8 °F /  6.0 °C 29.9in /  1012.1hPa NE 8.7mph /  14.0km/h 12.5mph /  20.1km/h 97% 0in /  0.0mm
21:12 43.7 °F /  6.5 °C 42.8 °F /  6.0 °C 29.9in /  1013.1hPa North 11mph /  17.7km/h 12.3mph /  19.8km/h 97% 0in /  0.0mm
21:18 43.7 °F /  6.5 °C 42.8 °F /  6.0 °C 29.9in /  1013.1hPa NE 15.7mph /  25.3km/h 15.7mph /  25.3km/h 96% 0in /  0.0mm
21:20 43.7 °F /  6.5 °C 42.8 °F /  6.0 °C 29.9in /  1013.1hPa NE 14.8mph /  23.8km/h 15.7mph /  25.3km/h 96% 0in /  0.0mm
21:25 43.7 °F /  6.5 °C 42.8 °F /  6.0 °C 29.9in /  1013.1hPa ENE 8.7mph /  14.0km/h 15.7mph /  25.3km/h 96% 0in /  0.0mm
21:29 43.5 °F /  6.4 °C 42.8 °F /  6.0 °C 29.9in /  1014.1hPa ENE 8.7mph /  14.0km/h 14.8mph /  23.8km/h 95% 0in /  0.0mm
21:34 43.5 °F /  6.4 °C 42.8 °F /  6.0 °C 29.9in /  1014.1hPa NNE 12.8mph /  20.6km/h 16.1mph /  25.9km/h 95% 0in /  0.0mm
21:38 43.5 °F /  6.4 °C 42.8 °F /  6.0 °C 29.9in /  1014.1hPa NE 8.7mph /  14.0km/h 16.1mph /  25.9km/h 95% 0in /  0.0mm
21:43 43.5 °F /  6.4 °C 42.8 °F /  6.0 °C 29.9in /  1014.1hPa NE 6.9mph /  11.1km/h 16.1mph /  25.9km/h 95% 0in /  0.0mm
21:49 43.5 °F /  6.4 °C 42.8 °F /  6.0 °C 29.9in /  1014.1hPa NNE 10.7mph /  17.2km/h 13mph /  20.9km/h 95% 0in /  0.0mm
21:54 43.3 °F /  6.3 °C 42.8 °F /  6.0 °C 29.9in /  1014.1hPa NE 8.1mph /  13.0km/h 12.3mph /  19.8km/h 96% 0in /  0.0mm
21:59 43.3 °F /  6.3 °C 42.8 °F /  6.0 °C 29.9in /  1014.1hPa ENE 8.1mph /  13.0km/h 12.3mph /  19.8km/h 96% 0in /  0.0mm
22:04 43.3 °F /  6.3 °C 42.8 °F /  6.0 °C 29.9in /  1014.1hPa NE 7.6mph /  12.2km/h 12.3mph /  19.8km/h 96% 0in /  0.0mm
22:09 43.3 °F /  6.3 °C 42.8 °F /  6.0 °C 29.9in /  1014.1hPa NNE 10.5mph /  16.9km/h 12.5mph /  20.1km/h 96% 0in /  0.0mm
22:14 43.3 °F /  6.3 °C 42.8 °F /  6.0 °C 29.9in /  1014.1hPa NE 8.7mph /  14.0km/h 13.2mph /  21.2km/h 95% 0in /  0.0mm
22:20 43.2 °F /  6.2 °C 42.8 °F /  6.0 °C 29.9in /  1014.1hPa NE 15.2mph /  24.5km/h 15.2mph /  24.5km/h 95% 0in /  0.0mm
22:25 43 °F /  6.1 °C 42.8 °F /  6.0 °C 29.9in /  1014.1hPa ENE 10.3mph /  16.6km/h 15.2mph /  24.5km/h 95% 0in /  0.0mm
22:31 43 °F /  6.1 °C 41 °F /  5.0 °C 29.9in /  1014.1hPa NNE 11mph /  17.7km/h 15.2mph /  24.5km/h 94% 0in /  0.0mm
22:33 43 °F /  6.1 °C 41 °F /  5.0 °C 29.9in /  1014.1hPa NE 8.7mph /  14.0km/h 15.2mph /  24.5km/h 94% 0in /  0.0mm
22:38 42.8 °F /  6.0 °C 41 °F /  5.0 °C 29.9in /  1014.1hPa NE 7.8mph /  12.6km/h 14.8mph /  23.8km/h 94% 0in /  0.0mm
22:43 42.8 °F /  6.0 °C 41 °F /  5.0 °C 30in /  1015.1hPa NE 11.9mph /  19.1km/h 12.3mph /  19.8km/h 94% 0in /  0.0mm
22:48 42.6 °F /  5.9 °C 41 °F /  5.0 °C 30in /  1015.1hPa NE 10.3mph /  16.6km/h 13.6mph /  21.9km/h 94% 0in /  0.0mm
22:54 42.6 °F /  5.9 °C 42.8 °F /  6.0 °C 30in /  1015.1hPa NNE 10.3mph /  16.6km/h 13.6mph /  21.9km/h 95% 0in /  0.0mm
22:59 42.6 °F /  5.9 °C 42.8 °F /  6.0 °C 30in /  1015.1hPa NE 9.2mph /  14.8km/h 14.5mph /  23.3km/h 95% 0in /  0.0mm
23:04 42.6 °F /  5.9 °C 42.8 °F /  6.0 °C 30in /  1015.1hPa NE 8.7mph /  14.0km/h 14.5mph /  23.3km/h 95% 0in /  0.0mm
23:09 42.6 °F /  5.9 °C 42.8 °F /  6.0 °C 30in /  1015.1hPa NE 10.3mph /  16.6km/h 13.4mph /  21.6km/h 95% 0in /  0.0mm
23:14 42.6 °F /  5.9 °C 42.8 °F /  6.0 °C 30in /  1016.1hPa NE 8.9mph /  14.3km/h 13.2mph /  21.2km/h 95% 0in /  0.0mm
23:19 42.6 °F /  5.9 °C 42.8 °F /  6.0 °C 30in /  1016.1hPa North 9.8mph /  15.8km/h 13.2mph /  21.2km/h 95% 0in /  0.0mm
23:24 42.4 °F /  5.8 °C 42.8 °F /  6.0 °C 30in /  1016.1hPa NE 10.5mph /  16.9km/h 13.2mph /  21.2km/h 95% 0in /  0.0mm
23:30 42.4 °F /  5.8 °C 42.8 °F /  6.0 °C 30in /  1015.1hPa NNE 8.5mph /  13.7km/h 13.2mph /  21.2km/h 95% 0in /  0.0mm
23:35 42.4 °F /  5.8 °C 41 °F /  5.0 °C 30in /  1015.1hPa NNE 8.5mph /  13.7km/h 14.8mph /  23.8km/h 94% 0in /  0.0mm
23:36 42.4 °F /  5.8 °C 41 °F /  5.0 °C 30in /  1015.1hPa NNE 8.5mph /  13.7km/h 14.8mph /  23.8km/h 94% 0in /  0.0mm
23:40 42.4 °F /  5.8 °C 41 °F /  5.0 °C 30in /  1015.1hPa North 12.8mph /  20.6km/h 17.2mph /  27.7km/h 94% 0in /  0.0mm
23:50 42.3 °F /  5.7 °C 41 °F /  5.0 °C 30in /  1015.1hPa NNE 17mph /  27.4km/h 17mph /  27.4km/h 93% 0in /  0.0mm
23:52 42.3 °F /  5.7 °C 41 °F /  5.0 °C 30in /  1015.1hPa NE 11mph /  17.7km/h 17mph /  27.4km/h 93% 0in /  0.0mm
23:57 42.3 °F /  5.7 °C 41 °F /  5.0 °C 30in /  1015.1hPa NE 7.8mph /  12.6km/h 17mph /  27.4km/h 93% 0in /  0.0mm
Données Historique de Météo Turbie

Mise a jour : 25/05/2018 07:00:14
Généré par Cumulus 1.9.4 (1099)